Time;durP1;ratioP1;P1;durP2;ratioP2;P2;SDS_P1;SDS_P2;PMS_P1;PMS_P2;Temp;Humidity;BMP_temperature;BMP_pressure;BME280_temperature;BME280_humidity;BME280_pressure;Samples;Min_cycle;Max_cycle;Signal;HPM_P1;HPM_P2
2022/08/30 00:02:23;;;;;;;0.00;0.00;;;14.90;99.90;226.50;231333.00;;;;4993622;28;20212;-71
2022/08/30 00:04:52;;;;;;;0.00;0.00;;;14.80;99.90;226.50;231333.00;;;;4994349;28;20201;-71
2022/08/30 00:07:22;;;;;;;0.10;0.10;;;14.80;99.90;226.50;231333.00;;;;4993828;28;20208;-70
2022/08/30 00:09:50;;;;;;;0.10;0.10;;;14.80;99.90;226.50;231333.00;;;;4994208;28;20211;-70
2022/08/30 00:12:19;;;;;;;0.00;0.00;;;14.80;99.90;226.50;231333.00;;;;4992987;28;20219;-70
2022/08/30 00:14:48;;;;;;;0.05;0.05;;;14.80;99.90;226.50;231333.00;;;;4994327;28;20207;-72
2022/08/30 00:17:18;;;;;;;0.00;0.00;;;14.70;99.90;226.50;231333.00;;;;4993482;28;20687;-73
2022/08/30 00:19:47;;;;;;;0.00;0.00;;;14.50;99.90;226.50;231333.00;;;;4993980;28;20252;-71
2022/08/30 00:22:15;;;;;;;0.00;0.00;;;14.50;99.90;226.50;231333.00;;;;4993650;28;20705;-71
2022/08/30 00:24:43;;;;;;;0.00;0.00;;;14.50;99.90;226.50;231333.00;;;;4994252;28;20192;-70
2022/08/30 00:27:11;;;;;;;0.00;0.00;;;14.50;99.90;226.50;231333.00;;;;4993897;28;20191;-72
2022/08/30 00:29:41;;;;;;;0.10;0.10;;;14.50;99.90;226.50;231333.00;;;;4991782;28;20252;-70
2022/08/30 00:32:10;;;;;;;0.00;0.00;;;14.50;99.90;226.50;231333.00;;;;4994082;28;20220;-71
2022/08/30 00:34:38;;;;;;;0.00;0.00;;;14.60;99.90;226.50;231333.00;;;;4993728;28;20207;-71
2022/08/30 00:37:07;;;;;;;0.00;0.00;;;14.60;99.90;226.50;231333.00;;;;4992476;28;20197;-71
2022/08/30 00:39:35;;;;;;;0.00;0.00;;;14.60;99.90;226.50;231333.00;;;;4992442;28;20220;-70
2022/08/30 00:42:04;;;;;;;0.08;0.08;;;14.60;99.90;226.50;231333.00;;;;4993872;28;20235;-71
2022/08/30 00:44:32;;;;;;;0.00;0.00;;;14.60;99.90;226.50;231333.00;;;;4993701;28;20709;-73
2022/08/30 00:47:00;;;;;;;0.00;0.00;;;14.50;99.90;226.50;231333.00;;;;4993640;28;20196;-71
2022/08/30 00:49:29;;;;;;;0.00;0.00;;;14.60;99.90;226.50;231333.00;;;;4992510;28;20207;-70
2022/08/30 00:51:58;;;;;;;0.00;0.00;;;14.60;99.90;226.50;231333.00;;;;4993630;28;20283;-71
2022/08/30 00:54:28;;;;;;;0.10;0.10;;;14.60;99.90;226.50;231333.00;;;;4994329;28;20524;-70
2022/08/30 00:56:57;;;;;;;0.00;0.00;;;14.70;99.90;226.50;231333.00;;;;4995150;28;20212;-70
2022/08/30 00:59:27;;;;;;;0.10;0.10;;;14.70;99.90;226.50;231333.00;;;;4995888;28;20202;-71
2022/08/30 01:01:56;;;;;;;0.08;0.08;;;14.60;99.90;226.50;231333.00;;;;4985512;28;20196;-70
2022/08/30 01:04:26;;;;;;;0.00;0.00;;;14.50;99.90;226.50;231333.00;;;;4995881;28;20192;-70
2022/08/30 01:06:54;;;;;;;0.10;0.10;;;14.50;99.90;226.50;231333.00;;;;4992262;28;20204;-70
2022/08/30 01:09:23;;;;;;;0.08;0.08;;;14.50;99.90;226.50;231333.00;;;;4993409;28;20196;-70
2022/08/30 01:11:53;;;;;;;0.05;0.05;;;14.40;99.90;226.50;231333.00;;;;4994500;28;20711;-72
2022/08/30 01:14:21;;;;;;;0.00;0.00;;;14.40;99.90;226.50;231333.00;;;;4996319;28;20694;-72
2022/08/30 01:16:57;;;;;;;0.00;0.00;;;14.30;99.90;226.50;231333.00;;;;4997709;28;20690;-70
2022/08/30 01:19:35;;;;;;;0.05;0.05;;;14.20;99.90;226.50;231333.00;;;;4985061;28;20211;-70
2022/08/30 01:22:16;;;;;;;0.00;0.00;;;14.20;99.90;226.50;231333.00;;;;4986924;28;20258;-72
2022/08/30 01:24:49;;;;;;;0.00;0.00;;;14.20;99.90;226.50;231333.00;;;;4975669;28;20205;-70
2022/08/30 01:27:18;;;;;;;0.00;0.00;;;14.30;99.90;226.50;231333.00;;;;4988812;28;20569;-72
2022/08/30 01:29:47;;;;;;;0.00;0.00;;;14.40;99.90;226.50;231333.00;;;;4997005;28;20197;-70
2022/08/30 01:32:19;;;;;;;0.00;0.00;;;14.20;99.90;226.50;231333.00;;;;4995704;28;20212;-70
2022/08/30 01:34:49;;;;;;;0.10;0.10;;;14.10;99.90;226.50;231333.00;;;;4997875;28;20196;-73
2022/08/30 01:37:21;;;;;;;0.00;0.00;;;14.00;99.90;226.50;231333.00;;;;4996897;28;20199;-70
2022/08/30 01:39:51;;;;;;;0.05;0.05;;;14.00;99.90;226.50;231333.00;;;;4993518;28;20224;-70
2022/08/30 01:42:19;;;;;;;0.00;0.00;;;14.00;99.90;226.50;231333.00;;;;4991380;28;20597;-70
2022/08/30 01:44:47;;;;;;;0.10;0.10;;;14.10;99.90;226.50;231333.00;;;;4975813;28;20197;-70
2022/08/30 01:47:17;;;;;;;0.10;0.10;;;14.10;99.90;226.50;231333.00;;;;4985459;28;20196;-71
2022/08/30 01:49:47;;;;;;;0.00;0.00;;;14.10;99.90;226.50;231333.00;;;;4984211;28;20196;-70
2022/08/30 01:52:16;;;;;;;0.00;0.00;;;14.00;99.90;226.50;231333.00;;;;4991598;28;20593;-71
2022/08/30 01:54:47;;;;;;;0.00;0.00;;;14.00;99.90;226.50;231333.00;;;;4992340;28;20200;-73
2022/08/30 01:57:21;;;;;;;0.10;0.10;;;14.00;99.90;226.50;231333.00;;;;4992255;28;20611;-74
2022/08/30 01:59:50;;;;;;;0.00;0.00;;;14.00;99.90;226.50;231333.00;;;;4992209;28;20195;-71
2022/08/30 02:02:23;;;;;;;0.00;0.00;;;14.00;99.90;226.50;231333.00;;;;4990508;28;20236;-71
2022/08/30 02:04:52;;;;;;;0.10;0.10;;;14.00;99.90;226.50;231333.00;;;;4992081;28;20223;-72
2022/08/30 02:07:20;;;;;;;0.08;0.08;;;13.90;99.90;226.50;231333.00;;;;4991847;28;20211;-71
2022/08/30 02:09:50;;;;;;;0.05;0.05;;;13.80;99.90;226.50;231333.00;;;;4992112;28;20211;-71
2022/08/30 02:12:20;;;;;;;0.10;0.10;;;13.90;99.90;226.50;231333.00;;;;4991750;28;20345;-71
2022/08/30 02:14:48;;;;;;;0.10;0.10;;;14.00;99.90;226.50;231333.00;;;;4992236;28;20203;-70
2022/08/30 02:17:18;;;;;;;0.03;0.03;;;14.00;99.90;226.50;231333.00;;;;4991858;28;20196;-71
2022/08/30 02:19:46;;;;;;;0.10;0.10;;;14.00;99.90;226.50;231333.00;;;;4992004;28;20215;-69
2022/08/30 02:22:15;;;;;;;0.05;0.05;;;13.90;99.90;226.50;231333.00;;;;4991624;28;20726;-71
2022/08/30 02:24:43;;;;;;;0.10;0.10;;;13.90;99.90;226.50;231333.00;;;;4991850;28;20206;-70
2022/08/30 02:27:11;;;;;;;0.10;0.10;;;13.90;99.90;226.50;231333.00;;;;4991354;28;20602;-71
2022/08/30 02:29:40;;;;;;;0.10;0.10;;;13.90;99.90;226.50;231333.00;;;;4991818;28;20655;-70
2022/08/30 02:32:08;;;;;;;0.10;0.10;;;13.90;99.90;226.50;231333.00;;;;4991393;28;20224;-72
2022/08/30 02:34:36;;;;;;;0.10;0.10;;;13.80;99.90;226.50;231333.00;;;;4991910;28;20592;-71
2022/08/30 02:37:05;;;;;;;0.00;0.00;;;13.70;99.90;226.50;231333.00;;;;4991696;28;20211;-71
2022/08/30 02:39:33;;;;;;;0.10;0.10;;;13.70;99.90;226.50;231333.00;;;;4991716;28;20208;-70
2022/08/30 02:42:01;;;;;;;0.10;0.10;;;13.60;99.90;226.50;231333.00;;;;4990960;28;20227;-70
2022/08/30 02:44:29;;;;;;;0.00;0.00;;;13.70;99.90;226.50;231333.00;;;;4991744;28;20208;-70
2022/08/30 02:46:58;;;;;;;0.05;0.05;;;13.60;99.90;226.50;231333.00;;;;4991847;28;20201;-71
2022/08/30 02:49:26;;;;;;;0.10;0.10;;;13.70;99.90;226.50;231333.00;;;;4991469;28;20218;-73
2022/08/30 02:52:01;;;;;;;0.10;0.10;;;13.70;99.90;226.50;231333.00;;;;4991487;28;20218;-71
2022/08/30 02:54:31;;;;;;;0.10;0.10;;;13.70;99.90;226.50;231333.00;;;;4991686;28;20200;-72
2022/08/30 02:57:03;;;;;;;0.00;0.00;;;13.60;99.90;226.50;231333.00;;;;4992067;28;20200;-70
2022/08/30 02:59:31;;;;;;;0.00;0.00;;;13.60;99.90;226.50;231333.00;;;;4991068;28;20284;-71
2022/08/30 03:02:01;;;;;;;0.00;0.00;;;13.50;99.90;226.50;231333.00;;;;4992800;28;20216;-70
2022/08/30 03:04:29;;;;;;;0.00;0.00;;;13.40;99.90;226.50;231333.00;;;;4994011;28;20192;-73
2022/08/30 03:06:57;;;;;;;0.10;0.10;;;13.30;99.90;226.50;231333.00;;;;4995596;28;20216;-71
2022/08/30 03:09:25;;;;;;;0.10;0.10;;;13.30;99.90;226.50;231333.00;;;;4994646;28;20200;-71
2022/08/30 03:11:53;;;;;;;0.10;0.10;;;13.30;99.90;226.50;231333.00;;;;5000517;28;20211;-70
2022/08/30 03:14:21;;;;;;;0.03;0.03;;;13.20;99.90;226.50;231333.00;;;;4995063;28;20220;-71
2022/08/30 03:16:50;;;;;;;0.10;0.10;;;13.20;99.90;226.50;231333.00;;;;4995404;28;20213;-71
2022/08/30 03:19:19;;;;;;;0.10;0.10;;;13.20;99.90;226.50;231333.00;;;;4993975;28;20573;-72
2022/08/30 03:21:48;;;;;;;0.00;0.00;;;13.20;99.90;226.50;231333.00;;;;4994302;28;20220;-72
2022/08/30 03:24:16;;;;;;;0.08;0.08;;;13.10;99.90;226.50;231333.00;;;;4994703;28;20203;-72
2022/08/30 03:26:44;;;;;;;0.10;0.10;;;13.10;99.90;226.50;231333.00;;;;4994509;28;20592;-71
2022/08/30 03:29:14;;;;;;;0.10;0.10;;;13.00;99.90;226.50;231333.00;;;;4988191;28;20224;-71
2022/08/30 03:31:42;;;;;;;0.10;0.10;;;13.00;99.90;226.50;231333.00;;;;4983976;28;20201;-71
2022/08/30 03:34:22;;;;;;;0.00;0.00;;;13.00;99.90;226.50;231333.00;;;;4975414;28;20685;-71
2022/08/30 03:36:51;;;;;;;0.10;0.10;;;13.00;99.90;226.50;231333.00;;;;4982879;28;20193;-71
2022/08/30 03:39:21;;;;;;;0.00;0.00;;;12.90;99.90;226.50;231333.00;;;;4989164;28;20193;-71
2022/08/30 03:41:49;;;;;;;0.10;0.10;;;13.00;99.90;226.50;231333.00;;;;4994237;28;20243;-70
2022/08/30 03:44:18;;;;;;;0.10;0.10;;;12.90;99.90;226.50;231333.00;;;;4982040;28;20197;-71
2022/08/30 03:46:47;;;;;;;0.10;0.10;;;12.90;99.90;226.50;231333.00;;;;4981613;28;20196;-71
2022/08/30 03:49:15;;;;;;;0.08;0.08;;;12.90;99.90;226.50;231333.00;;;;4992992;28;20212;-71
2022/08/30 03:51:44;;;;;;;0.05;0.05;;;12.90;99.90;226.50;231333.00;;;;4993935;28;20567;-71
2022/08/30 03:54:13;;;;;;;0.10;0.10;;;12.80;99.90;226.50;231333.00;;;;4994761;28;20196;-72
2022/08/30 03:56:41;;;;;;;0.08;0.08;;;12.80;99.90;226.50;231333.00;;;;4993988;28;20570;-70
2022/08/30 03:59:09;;;;;;;0.10;0.10;;;12.80;99.90;226.50;231333.00;;;;4994322;28;20200;-70
2022/08/30 04:01:37;;;;;;;0.10;0.10;;;12.80;99.90;226.50;231333.00;;;;4993987;28;20220;-70
2022/08/30 04:04:05;;;;;;;0.10;0.10;;;12.80;99.90;226.50;231333.00;;;;4995001;28;20201;-70
2022/08/30 04:06:34;;;;;;;0.05;0.05;;;12.80;99.90;226.50;231333.00;;;;4994209;28;20204;-71
2022/08/30 04:09:03;;;;;;;0.10;0.10;;;12.80;99.90;226.50;231333.00;;;;4994810;28;20196;-71
2022/08/30 04:11:32;;;;;;;0.10;0.10;;;12.70;99.90;226.50;231333.00;;;;4990922;28;20196;-70
2022/08/30 04:14:00;;;;;;;0.10;0.10;;;12.80;99.90;226.50;231333.00;;;;4995449;28;20216;-70
2022/08/30 04:16:28;;;;;;;0.10;0.10;;;12.80;99.90;226.50;231333.00;;;;4991005;28;20207;-70
2022/08/30 04:18:56;;;;;;;0.10;0.10;;;12.90;99.90;226.50;231333.00;;;;4991437;28;20233;-70
2022/08/30 04:21:27;;;;;;;0.10;0.10;;;12.90;99.90;226.50;231333.00;;;;4992430;28;20212;-70
2022/08/30 04:23:55;;;;;;;0.10;0.10;;;12.90;99.90;226.50;231333.00;;;;4988071;28;20365;-70
2022/08/30 04:26:24;;;;;;;0.10;0.10;;;12.90;99.90;226.50;231333.00;;;;4994711;28;20639;-70
2022/08/30 04:28:58;;;;;;;0.00;0.00;;;12.90;99.90;226.50;231333.00;;;;5011999;28;20570;-70
2022/08/30 04:31:26;;;;;;;0.10;0.10;;;12.90;99.90;226.50;231333.00;;;;4989518;28;20211;-70
2022/08/30 04:33:54;;;;;;;0.00;0.00;;;12.90;99.90;226.50;231333.00;;;;4976657;28;20225;-71
2022/08/30 04:36:22;;;;;;;0.10;0.10;;;12.90;99.90;226.50;231333.00;;;;4987030;28;20201;-70
2022/08/30 04:38:50;;;;;;;0.10;0.10;;;13.00;99.90;226.50;231333.00;;;;4990354;28;20200;-70
2022/08/30 04:41:23;;;;;;;0.10;0.10;;;13.10;99.90;226.50;231333.00;;;;4991357;28;20208;-72
2022/08/30 04:43:55;;;;;;;0.10;0.10;;;13.10;99.90;226.50;231333.00;;;;4986622;28;20220;-71
2022/08/30 04:46:23;;;;;;;0.10;0.10;;;13.10;99.90;226.50;231333.00;;;;4993517;28;20204;-71
2022/08/30 04:48:51;;;;;;;0.00;0.00;;;13.10;99.90;226.50;231333.00;;;;4988017;28;20216;-70
2022/08/30 04:51:19;;;;;;;0.10;0.10;;;13.10;99.90;226.50;231333.00;;;;4986687;28;20199;-70
2022/08/30 04:53:47;;;;;;;0.10;0.10;;;13.00;99.90;226.50;231333.00;;;;4985962;28;20239;-70
2022/08/30 04:56:21;;;;;;;0.10;0.10;;;12.90;99.90;226.50;231333.00;;;;4989818;28;20738;-71
2022/08/30 04:58:53;;;;;;;0.10;0.10;;;12.90;99.90;226.50;231333.00;;;;5004573;28;20204;-71
2022/08/30 05:01:26;;;;;;;0.00;0.00;;;12.90;99.90;226.50;231333.00;;;;4989153;28;20292;-72
2022/08/30 05:03:56;;;;;;;0.10;0.10;;;12.90;99.90;226.50;231333.00;;;;4987399;28;20217;-71
2022/08/30 05:06:29;;;;;;;0.10;0.10;;;12.90;99.90;226.50;231333.00;;;;4989958;28;20216;-71
2022/08/30 05:08:59;;;;;;;0.08;0.08;;;12.90;99.90;226.50;231333.00;;;;4991784;28;20263;-71
2022/08/30 05:11:28;;;;;;;0.10;0.10;;;12.90;99.90;226.50;231333.00;;;;4990280;28;20231;-71
2022/08/30 05:13:56;;;;;;;0.10;0.10;;;13.00;99.90;226.50;231333.00;;;;5009417;23;20609;-75
2022/08/30 05:16:30;;;;;;;0.10;0.10;;;13.00;99.90;226.50;231333.00;;;;5002540;28;20675;-74
2022/08/30 05:19:00;;;;;;;0.00;0.00;;;13.10;99.90;226.50;231333.00;;;;5002866;28;20208;-75
2022/08/30 05:21:29;;;;;;;0.10;0.10;;;13.30;99.90;226.50;231333.00;;;;4998988;28;20674;-74
2022/08/30 05:24:00;;;;;;;0.10;0.10;;;13.40;99.90;226.50;231333.00;;;;4993422;28;20247;-76
2022/08/30 05:26:31;;;;;;;0.05;0.05;;;13.40;99.90;226.50;231333.00;;;;4986041;28;20205;-75
2022/08/30 05:29:00;;;;;;;0.10;0.10;;;13.30;99.90;226.50;231333.00;;;;4985304;28;20343;-74
2022/08/30 05:31:33;;;;;;;0.00;0.00;;;13.20;99.90;226.50;231333.00;;;;4985341;28;20216;-73
2022/08/30 05:34:03;;;;;;;0.08;0.08;;;13.00;99.90;226.50;231333.00;;;;4984225;28;20232;-75
2022/08/30 05:36:35;;;;;;;0.10;0.10;;;13.10;99.90;226.50;231333.00;;;;5001677;28;20200;-75
2022/08/30 05:39:04;;;;;;;0.10;0.10;;;13.10;99.90;226.50;231333.00;;;;4981853;28;20209;-73
2022/08/30 05:41:33;;;;;;;0.10;0.10;;;13.20;99.90;226.50;231333.00;;;;4984258;28;20205;-74
2022/08/30 05:44:04;;;;;;;0.00;0.00;;;13.10;99.90;226.50;231333.00;;;;4985679;28;20240;-73
2022/08/30 05:46:35;;;;;;;0.10;0.10;;;13.20;99.90;226.50;231333.00;;;;4985156;28;20211;-75
2022/08/30 05:49:06;;;;;;;0.10;0.10;;;13.30;99.90;226.50;231333.00;;;;4985419;28;20214;-73
2022/08/30 05:51:37;;;;;;;0.10;0.10;;;13.30;99.90;226.50;231333.00;;;;4984360;28;20694;-75
2022/08/30 05:54:11;;;;;;;0.10;0.10;;;13.30;99.90;226.50;231333.00;;;;4988393;28;20235;-73
2022/08/30 05:56:43;;;;;;;0.10;0.10;;;13.30;99.90;226.50;231333.00;;;;4981218;28;20214;-73
2022/08/30 05:59:13;;;;;;;0.00;0.00;;;13.40;99.90;226.50;231333.00;;;;4982593;28;20200;-73
2022/08/30 06:01:46;;;;;;;0.10;0.10;;;13.40;99.90;226.50;231333.00;;;;4985940;28;20216;-74
2022/08/30 06:04:14;;;;;;;0.10;0.10;;;13.50;99.90;226.50;231333.00;;;;5004670;28;20228;-73
2022/08/30 06:06:44;;;;;;;0.10;0.10;;;13.50;99.90;226.50;231333.00;;;;4996152;28;20203;-74
2022/08/30 06:09:14;;;;;;;0.10;0.10;;;13.60;99.90;226.50;231333.00;;;;4996125;28;20202;-74
2022/08/30 06:11:43;;;;;;;0.10;0.10;;;13.70;99.90;226.50;231333.00;;;;4992115;28;20512;-73
2022/08/30 06:14:12;;;;;;;0.03;0.03;;;13.80;99.90;226.50;231333.00;;;;4988675;28;20231;-74
2022/08/30 06:16:44;;;;;;;0.10;0.10;;;13.80;99.90;226.50;231333.00;;;;4988227;28;20203;-73
2022/08/30 06:19:15;;;;;;;0.10;0.10;;;13.80;99.90;226.50;231333.00;;;;4986413;28;20210;-73
2022/08/30 06:21:46;;;;;;;0.10;0.10;;;13.90;99.90;226.50;231333.00;;;;4987266;28;20463;-73
2022/08/30 06:24:15;;;;;;;0.03;0.03;;;13.90;99.90;226.50;231333.00;;;;4987106;28;20231;-74
2022/08/30 06:26:46;;;;;;;0.10;0.10;;;14.00;99.90;226.50;231333.00;;;;4986492;28;20219;-73
2022/08/30 06:29:19;;;;;;;0.00;0.00;;;14.00;99.90;226.50;231333.00;;;;4988070;28;20205;-73
2022/08/30 06:31:49;;;;;;;0.00;0.00;;;14.10;99.90;226.50;231333.00;;;;4990070;28;20234;-73
2022/08/30 06:34:17;;;;;;;0.00;0.00;;;14.10;99.90;226.50;231333.00;;;;4986931;28;20319;-73
2022/08/30 06:36:45;;;;;;;0.00;0.00;;;14.20;99.90;226.50;231333.00;;;;4988095;28;20196;-73
2022/08/30 06:39:14;;;;;;;0.00;0.00;;;14.30;99.90;226.50;231333.00;;;;4986226;28;20843;-73
2022/08/30 06:41:42;;;;;;;0.10;0.10;;;14.40;99.90;226.50;231333.00;;;;4988922;28;20215;-75
2022/08/30 06:44:23;;;;;;;0.10;0.10;;;14.50;99.90;226.50;231333.00;;;;4987120;28;20280;-73
2022/08/30 06:46:53;;;;;;;0.10;0.10;;;14.60;99.90;226.50;231333.00;;;;4981009;28;20203;-73
2022/08/30 06:49:21;;;;;;;0.05;0.05;;;14.60;99.90;226.50;231333.00;;;;4991828;28;20651;-73
2022/08/30 06:51:50;;;;;;;0.00;0.00;;;14.80;99.90;226.50;231333.00;;;;4993327;28;20564;-73
2022/08/30 06:54:18;;;;;;;0.00;0.00;;;14.90;99.90;226.50;231333.00;;;;4993356;28;20228;-73
2022/08/30 06:56:46;;;;;;;0.00;0.00;;;15.10;99.90;226.50;231333.00;;;;4989417;28;20294;-73
2022/08/30 06:59:26;;;;;;;0.10;0.10;;;15.10;99.90;226.50;231333.00;;;;4991580;28;20547;-74
2022/08/30 07:01:56;;;;;;;0.10;0.10;;;15.20;99.90;226.50;231333.00;;;;4992804;28;20210;-73
2022/08/30 07:04:25;;;;;;;0.08;0.08;;;15.20;99.90;226.50;231333.00;;;;5001239;28;20238;-74
2022/08/30 07:06:53;;;;;;;0.00;0.00;;;15.20;99.90;226.50;231333.00;;;;5014406;28;20395;-76
2022/08/30 07:09:21;;;;;;;0.08;0.08;;;15.40;99.90;226.50;231333.00;;;;5008823;28;20272;-76
2022/08/30 07:11:51;;;;;;;0.00;0.00;;;15.50;99.90;226.50;231333.00;;;;5004325;28;20196;-74
2022/08/30 07:14:21;;;;;;;0.00;0.00;;;15.50;99.90;226.50;231333.00;;;;4999271;28;20738;-75
2022/08/30 07:16:49;;;;;;;0.00;0.00;;;15.60;99.90;226.50;231333.00;;;;4998226;28;20193;-74
2022/08/30 07:19:19;;;;;;;0.00;0.00;;;15.60;99.90;226.50;231333.00;;;;4997501;28;20639;-76
2022/08/30 07:21:49;;;;;;;0.10;0.10;;;15.70;99.90;226.50;231333.00;;;;4991462;28;20255;-74
2022/08/30 07:24:19;;;;;;;0.00;0.00;;;15.80;99.90;226.50;231333.00;;;;4990469;28;20239;-74
2022/08/30 07:26:50;;;;;;;0.00;0.00;;;15.80;99.90;226.50;231333.00;;;;4992501;28;20212;-74
2022/08/30 07:29:20;;;;;;;0.00;0.00;;;15.80;99.90;226.50;231333.00;;;;4983028;28;20206;-73
2022/08/30 07:31:49;;;;;;;0.00;0.00;;;15.90;99.90;226.50;231333.00;;;;4986204;28;20675;-74
2022/08/30 07:34:17;;;;;;;0.00;0.00;;;16.00;99.90;226.50;231333.00;;;;4986696;28;20307;-73
2022/08/30 07:36:50;;;;;;;0.00;0.00;;;16.10;99.90;226.50;231333.00;;;;4981337;28;20193;-73
2022/08/30 07:39:19;;;;;;;0.00;0.00;;;16.20;99.90;226.50;231333.00;;;;4982859;28;20259;-74
2022/08/30 07:41:48;;;;;;;0.00;0.00;;;16.30;99.90;226.50;231333.00;;;;4988269;28;20208;-74
2022/08/30 07:44:17;;;;;;;0.00;0.00;;;16.40;99.90;226.50;231333.00;;;;4987455;28;20231;-74
2022/08/30 07:46:45;;;;;;;0.00;0.00;;;16.60;99.90;226.50;231333.00;;;;4990618;28;20578;-74
2022/08/30 07:49:16;;;;;;;0.00;0.00;;;16.80;99.90;226.50;231333.00;;;;4989231;28;20299;-75
2022/08/30 07:51:45;;;;;;;0.10;0.10;;;16.90;99.90;226.50;231333.00;;;;4992633;28;20693;-75
2022/08/30 07:54:15;;;;;;;0.00;0.00;;;17.10;99.90;226.50;231333.00;;;;4993520;28;20238;-75
2022/08/30 07:56:43;;;;;;;0.00;0.00;;;17.20;99.90;226.50;231333.00;;;;4984384;28;20196;-74
2022/08/30 07:59:11;;;;;;;0.00;0.00;;;17.20;99.90;226.50;231333.00;;;;4988514;28;20263;-74
2022/08/30 08:01:42;;;;;;;0.00;0.00;;;17.30;99.90;226.50;231333.00;;;;5003874;28;20208;-74
2022/08/30 08:04:10;;;;;;;0.10;0.10;;;17.40;99.90;226.50;231333.00;;;;4985307;28;20295;-73
2022/08/30 08:06:40;;;;;;;0.00;0.00;;;17.50;99.90;226.50;231333.00;;;;4990226;28;20567;-75
2022/08/30 08:09:08;;;;;;;0.00;0.00;;;17.70;99.90;226.50;231333.00;;;;4991400;28;20193;-73
2022/08/30 08:11:39;;;;;;;0.00;0.00;;;17.90;99.90;226.50;231333.00;;;;4987237;28;20196;-74
2022/08/30 08:14:08;;;;;;;0.00;0.00;;;18.00;99.90;226.50;231333.00;;;;4986729;28;20240;-74
2022/08/30 08:16:38;;;;;;;0.00;0.00;;;18.30;99.90;226.50;231333.00;;;;4989621;28;20954;-74
2022/08/30 08:19:07;;;;;;;0.00;0.00;;;18.40;99.90;226.50;231333.00;;;;4991424;28;20208;-74
2022/08/30 08:21:37;;;;;;;0.00;0.00;;;18.50;99.90;226.50;231333.00;;;;4990775;28;20207;-75
2022/08/30 08:24:05;;;;;;;0.00;0.00;;;18.70;99.90;226.50;231333.00;;;;4990800;28;20761;-74
2022/08/30 08:26:36;;;;;;;0.00;0.00;;;18.80;99.90;226.50;231333.00;;;;4988706;28;20212;-75
2022/08/30 08:29:08;;;;;;;0.00;0.00;;;18.90;99.90;226.50;231333.00;;;;4992200;28;20208;-74
2022/08/30 08:31:37;;;;;;;0.00;0.00;;;19.00;99.90;226.50;231333.00;;;;4987855;28;20675;-74
2022/08/30 08:34:06;;;;;;;0.00;0.00;;;19.10;99.90;226.50;231333.00;;;;4983914;28;20267;-73
2022/08/30 08:36:35;;;;;;;0.00;0.00;;;19.20;99.90;226.50;231333.00;;;;4992845;28;20764;-74
2022/08/30 08:39:06;;;;;;;0.00;0.00;;;19.40;99.90;226.50;231333.00;;;;4987340;28;20206;-73
2022/08/30 08:41:55;;;;;;;0.00;0.00;;;19.50;99.90;226.50;231333.00;;;;4987803;28;20240;-74
2022/08/30 08:44:45;;;;;;;0.00;0.00;;;19.60;99.90;226.50;231333.00;;;;4989175;28;20231;-74
2022/08/30 08:47:21;;;;;;;0.00;0.00;;;19.90;99.90;226.50;231333.00;;;;4988458;28;20212;-75
2022/08/30 08:50:01;;;;;;;0.00;0.00;;;20.00;99.90;226.50;231333.00;;;;4986590;28;20231;-74
2022/08/30 08:55:33;;;;;;;0.00;0.00;;;20.40;99.90;226.50;231333.00;;;;4989955;28;20209;-75
2022/08/30 08:58:06;;;;;;;0.00;0.00;;;20.40;99.90;226.50;231333.00;;;;4989130;28;20296;-76
2022/08/30 09:00:41;;;;;;;0.00;0.00;;;20.50;99.90;226.50;231333.00;;;;4990649;28;20559;-74
2022/08/30 09:03:19;;;;;;;0.00;0.00;;;20.70;99.90;226.50;231333.00;;;;4991886;28;20227;-74
2022/08/30 09:05:50;;;;;;;0.00;0.00;;;20.80;99.90;226.50;231333.00;;;;4990695;28;20220;-74
2022/08/30 09:08:26;;;;;;;0.00;0.00;;;21.00;99.90;226.50;231333.00;;;;4988945;28;20200;-74
2022/08/30 09:11:15;;;;;;;0.00;0.00;;;21.10;99.90;226.50;231333.00;;;;4988367;28;20282;-74
2022/08/30 09:13:50;;;;;;;0.00;0.00;;;21.30;99.90;226.50;231333.00;;;;4989957;28;20228;-76
2022/08/30 09:16:59;;;;;;;0.00;0.00;;;21.40;99.90;226.50;231333.00;;;;4989436;28;20238;-74
2022/08/30 09:19:45;;;;;;;0.00;0.00;;;21.60;99.90;226.50;231333.00;;;;4997935;28;20196;-75
2022/08/30 09:22:32;;;;;;;0.00;0.00;;;21.80;99.90;226.50;231333.00;;;;5000449;28;20208;-75
2022/08/30 09:25:19;;;;;;;0.00;0.00;;;21.90;99.90;226.50;231333.00;;;;4996777;28;20317;-73
2022/08/30 09:28:08;;;;;;;0.00;0.00;;;21.90;99.90;226.50;231333.00;;;;4987774;28;20569;-74
2022/08/30 09:30:56;;;;;;;0.00;0.00;;;22.00;99.90;226.50;231333.00;;;;4983183;28;20219;-72
2022/08/30 09:33:32;;;;;;;0.00;0.00;;;22.10;99.90;226.50;231333.00;;;;4988772;28;20224;-75
2022/08/30 09:36:22;;;;;;;0.00;0.00;;;22.10;99.90;226.50;231333.00;;;;4991890;28;20215;-76
2022/08/30 09:39:07;;;;;;;0.00;0.00;;;22.20;99.90;226.50;231333.00;;;;4992476;28;20227;-75
2022/08/30 09:41:47;;;;;;;0.00;0.00;;;22.00;99.90;226.50;231333.00;;;;4990716;28;20197;-73
2022/08/30 09:44:26;;;;;;;0.00;0.00;;;22.10;99.90;226.50;231333.00;;;;4990652;28;20707;-73
2022/08/30 09:47:05;;;;;;;0.00;0.00;;;22.20;99.90;226.50;231333.00;;;;4992057;28;20215;-74
2022/08/30 09:49:43;;;;;;;0.00;0.00;;;22.20;99.90;226.50;231333.00;;;;4993867;28;20241;-75
2022/08/30 09:52:58;;;;;;;0.00;0.00;;;22.40;99.90;226.50;231333.00;;;;4988998;28;20232;-73
2022/08/30 09:56:04;;;;;;;0.00;0.00;;;22.30;99.90;226.50;231333.00;;;;4986674;28;20227;-74
2022/08/30 09:58:55;;;;;;;0.00;0.00;;;22.50;99.90;226.50;231333.00;;;;4982261;28;21513;-74
2022/08/30 10:01:36;;;;;;;0.00;0.00;;;22.70;99.90;226.50;231333.00;;;;4988180;28;20208;-75
2022/08/30 10:04:24;;;;;;;0.00;0.00;;;22.70;99.90;226.50;231333.00;;;;4991939;28;20224;-74
2022/08/30 10:07:12;;;;;;;0.00;0.00;;;22.80;99.90;226.50;231333.00;;;;4989610;28;20208;-74
2022/08/30 10:09:59;;;;;;;0.00;0.00;;;22.90;99.90;226.50;231333.00;;;;4989285;28;20212;-73
2022/08/30 10:12:49;;;;;;;0.00;0.00;;;23.00;99.90;226.50;231333.00;;;;4999006;28;20224;-74
2022/08/30 10:15:34;;;;;;;0.00;0.00;;;23.30;99.90;226.50;231333.00;;;;4989705;28;20212;-73
2022/08/30 10:18:22;;;;;;;0.00;0.00;;;23.20;99.90;226.50;231333.00;;;;4987548;28;20184;-73
2022/08/30 10:21:04;;;;;;;0.00;0.00;;;23.20;99.90;226.50;231333.00;;;;4989033;28;20203;-73
2022/08/30 10:23:44;;;;;;;0.00;0.00;;;23.30;99.90;226.50;231333.00;;;;4988489;28;20216;-74
2022/08/30 10:26:26;;;;;;;0.00;0.00;;;23.30;99.90;226.50;231333.00;;;;4986754;28;20224;-75
2022/08/30 10:29:09;;;;;;;0.00;0.00;;;23.50;99.90;226.50;231333.00;;;;4988265;28;20278;-74
2022/08/30 10:31:49;;;;;;;0.00;0.00;;;23.40;99.90;226.50;231333.00;;;;4987631;28;20205;-75
2022/08/30 10:34:27;;;;;;;0.00;0.00;;;23.60;99.90;226.50;231333.00;;;;4987584;28;20216;-74
2022/08/30 10:37:08;;;;;;;0.00;0.00;;;23.70;99.90;226.50;231333.00;;;;4986949;28;20989;-74
2022/08/30 10:39:46;;;;;;;0.00;0.00;;;23.90;99.90;226.50;231333.00;;;;4983853;28;20204;-75
2022/08/30 10:42:24;;;;;;;0.00;0.00;;;24.20;99.90;226.50;231333.00;;;;4983879;28;20853;-75
2022/08/30 10:45:03;;;;;;;0.00;0.00;;;24.30;99.90;226.50;231333.00;;;;4985685;28;20306;-75
2022/08/30 10:47:47;;;;;;;0.00;0.00;;;24.50;99.90;226.50;231333.00;;;;4989098;28;20206;-74
2022/08/30 10:50:28;;;;;;;0.00;0.00;;;24.70;99.90;226.50;231333.00;;;;4991035;28;20263;-74
2022/08/30 10:53:07;;;;;;;0.00;0.00;;;24.70;99.90;226.50;231333.00;;;;4992530;28;20224;-74
2022/08/30 10:55:48;;;;;;;0.00;0.00;;;24.80;99.90;226.50;231333.00;;;;4983308;28;20210;-74
2022/08/30 10:58:20;;;;;;;0.00;0.00;;;24.80;99.90;226.50;231333.00;;;;4986331;28;20205;-75
2022/08/30 11:01:21;;;;;;;0.00;0.00;;;24.90;99.90;226.50;231333.00;;;;4986501;28;20205;-75
2022/08/30 11:04:48;;;;;;;0.00;0.00;;;25.10;99.90;226.50;231333.00;;;;4985003;28;20220;-75
2022/08/30 11:07:37;;;;;;;0.00;0.00;;;25.30;99.90;226.50;231333.00;;;;4985406;28;21325;-74